Time;durP1;ratioP1;P1;durP2;ratioP2;P2;SDS_P1;SDS_P2;PMS_P1;PMS_P2;Temp;Humidity;BMP_temperature;BMP_pressure;BME280_temperature;BME280_humidity;BME280_pressure;Samples;Min_cycle;Max_cycle;Signal;HPM_P1;HPM_P2
2021/07/17 00:00:35;;;;;;;0.82;0.50;;;23.50;62.40;;;;;;5003022;28;20397;-67
2021/07/17 00:03:03;;;;;;;0.90;0.60;;;23.50;62.50;;;;;;5003504;28;20392;-67
2021/07/17 00:05:28;;;;;;;0.70;0.40;;;23.50;62.50;;;;;;5001608;28;20450;-61
2021/07/17 00:07:55;;;;;;;0.88;0.50;;;23.50;62.50;;;;;;5001220;28;20397;-62
2021/07/17 00:10:30;;;;;;;1.45;0.40;;;23.50;62.50;;;;;;5001253;28;20397;-61
2021/07/17 00:12:56;;;;;;;1.10;0.60;;;23.50;62.40;;;;;;5001062;28;20396;-64
2021/07/17 00:15:24;;;;;;;0.97;0.50;;;23.50;62.30;;;;;;5000897;28;20447;-64
2021/07/17 00:17:50;;;;;;;1.73;0.60;;;23.50;62.40;;;;;;5001368;28;20438;-62
2021/07/17 00:20:16;;;;;;;1.17;0.60;;;23.50;62.30;;;;;;5001841;28;20880;-64
2021/07/17 00:22:42;;;;;;;1.50;0.50;;;23.50;62.20;;;;;;5002484;28;20393;-63
2021/07/17 00:25:14;;;;;;;0.80;0.50;;;23.50;62.30;;;;;;5003173;28;20869;-66
2021/07/17 00:27:40;;;;;;;1.00;0.50;;;23.50;62.40;;;;;;5002793;28;20393;-62
2021/07/17 00:30:07;;;;;;;1.65;0.60;;;23.50;62.30;;;;;;5002761;28;20435;-66
2021/07/17 00:32:33;;;;;;;0.70;0.50;;;23.50;62.30;;;;;;5001157;28;20469;-62
2021/07/17 00:34:59;;;;;;;1.30;0.57;;;23.50;62.30;;;;;;5002795;28;20437;-67
2021/07/17 00:37:25;;;;;;;0.98;0.60;;;23.50;62.40;;;;;;5002270;28;20511;-68
2021/07/17 00:39:51;;;;;;;1.27;0.57;;;23.50;62.40;;;;;;5002621;28;20931;-64
2021/07/17 00:42:16;;;;;;;1.10;0.60;;;23.50;62.40;;;;;;5001782;28;20408;-64
2021/07/17 00:44:42;;;;;;;1.00;0.60;;;23.40;62.30;;;;;;5005231;28;20519;-67
2021/07/17 00:47:08;;;;;;;1.00;0.60;;;23.40;62.40;;;;;;5006399;28;20911;-66
2021/07/17 00:49:35;;;;;;;1.02;0.47;;;23.40;62.40;;;;;;5005327;28;21262;-66
2021/07/17 00:52:00;;;;;;;1.10;0.50;;;23.40;62.40;;;;;;5006369;28;20384;-63
2021/07/17 00:54:27;;;;;;;0.80;0.50;;;23.40;62.40;;;;;;5006019;28;20580;-66
2021/07/17 00:56:54;;;;;;;0.80;0.60;;;23.40;62.40;;;;;;5005948;28;21018;-65
2021/07/17 00:59:23;;;;;;;0.70;0.40;;;23.40;62.30;;;;;;5006638;28;20389;-67
2021/07/17 01:01:52;;;;;;;0.95;0.57;;;23.40;62.40;;;;;;5005941;28;20476;-68
2021/07/17 01:04:18;;;;;;;0.80;0.60;;;23.40;62.40;;;;;;5005889;28;20385;-67
2021/07/17 01:06:45;;;;;;;1.33;0.60;;;23.40;62.50;;;;;;5005826;28;21205;-62
2021/07/17 01:09:11;;;;;;;0.70;0.43;;;23.40;62.50;;;;;;5005914;28;20512;-64
2021/07/17 01:11:38;;;;;;;0.80;0.50;;;23.40;62.50;;;;;;5005233;28;20433;-63
2021/07/17 01:14:04;;;;;;;0.80;0.50;;;23.40;62.50;;;;;;5005841;28;20381;-62
2021/07/17 01:16:31;;;;;;;0.77;0.50;;;23.40;62.50;;;;;;5005888;28;20852;-67
2021/07/17 01:18:57;;;;;;;0.80;0.60;;;23.40;62.50;;;;;;5005780;28;20451;-67
2021/07/17 01:21:22;;;;;;;1.23;0.50;;;23.40;62.50;;;;;;5005182;28;20470;-61
2021/07/17 01:23:48;;;;;;;0.85;0.50;;;23.30;62.50;;;;;;5005372;28;20381;-65
2021/07/17 01:26:15;;;;;;;0.73;0.50;;;23.30;62.50;;;;;;5005745;28;20404;-66
2021/07/17 01:28:41;;;;;;;0.65;0.50;;;23.30;62.50;;;;;;5005360;28;20392;-67
2021/07/17 01:31:07;;;;;;;1.75;0.50;;;23.30;62.50;;;;;;5005308;28;20447;-64
2021/07/17 01:33:34;;;;;;;0.80;0.50;;;23.30;62.50;;;;;;5005160;28;20475;-65
2021/07/17 01:35:59;;;;;;;1.00;0.50;;;23.30;62.50;;;;;;5005067;28;20421;-66
2021/07/17 01:38:25;;;;;;;1.00;0.50;;;23.30;62.50;;;;;;5005454;28;20399;-66
2021/07/17 01:40:51;;;;;;;0.82;0.50;;;23.30;62.50;;;;;;5005029;28;20416;-67
2021/07/17 01:43:17;;;;;;;0.90;0.53;;;23.30;62.50;;;;;;5004593;28;20415;-65
2021/07/17 01:45:45;;;;;;;1.10;0.68;;;23.30;62.50;;;;;;5004947;28;20785;-66
2021/07/17 01:48:12;;;;;;;0.60;0.50;;;23.30;62.50;;;;;;5004759;28;20535;-66
2021/07/17 01:50:39;;;;;;;0.60;0.43;;;23.30;62.50;;;;;;5005219;28;20390;-65
2021/07/17 01:53:06;;;;;;;0.70;0.50;;;23.30;62.60;;;;;;5005016;28;20403;-68
2021/07/17 01:55:32;;;;;;;0.87;0.50;;;23.30;62.50;;;;;;5003540;28;20452;-63
2021/07/17 01:57:59;;;;;;;0.80;0.57;;;23.30;62.50;;;;;;5005209;28;20924;-66
2021/07/17 02:00:25;;;;;;;0.70;0.50;;;23.30;62.50;;;;;;5004715;28;20393;-67
2021/07/17 02:02:52;;;;;;;0.75;0.50;;;23.20;62.50;;;;;;5004984;28;20393;-68
2021/07/17 02:05:23;;;;;;;0.90;0.50;;;23.20;62.50;;;;;;5004576;28;20476;-62
2021/07/17 02:07:48;;;;;;;0.75;0.50;;;23.20;62.50;;;;;;5004666;28;20408;-62
2021/07/17 02:10:20;;;;;;;0.88;0.40;;;23.30;62.50;;;;;;5003018;28;20405;-67
2021/07/17 02:13:11;;;;;;;1.20;0.55;;;23.20;62.60;;;;;;5004782;28;20401;-64
2021/07/17 02:15:44;;;;;;;0.60;0.40;;;23.20;62.50;;;;;;5004256;28;20415;-67
2021/07/17 02:18:11;;;;;;;0.90;0.50;;;23.20;62.50;;;;;;5004215;28;20536;-67
2021/07/17 02:20:37;;;;;;;1.17;0.65;;;23.20;62.40;;;;;;5004514;28;20401;-67
2021/07/17 02:23:03;;;;;;;0.70;0.50;;;23.20;62.50;;;;;;5004247;28;20410;-64
2021/07/17 02:25:30;;;;;;;1.05;0.50;;;23.20;62.50;;;;;;5003797;28;20384;-64
2021/07/17 02:27:55;;;;;;;1.20;0.50;;;23.20;62.50;;;;;;5003133;28;20822;-62
2021/07/17 02:30:21;;;;;;;0.80;0.50;;;23.20;62.50;;;;;;5003873;28;20431;-67
2021/07/17 02:32:47;;;;;;;0.93;0.52;;;23.20;62.50;;;;;;5003894;28;20403;-67
2021/07/17 02:35:12;;;;;;;1.00;0.57;;;23.20;62.50;;;;;;5004221;28;20452;-66
2021/07/17 02:37:39;;;;;;;0.70;0.50;;;23.20;62.50;;;;;;5003825;28;20434;-66
2021/07/17 02:40:06;;;;;;;0.80;0.50;;;23.10;62.50;;;;;;5003499;28;20409;-67
2021/07/17 02:42:34;;;;;;;0.73;0.50;;;23.10;62.40;;;;;;5004332;28;20401;-66
2021/07/17 02:44:59;;;;;;;1.13;0.60;;;23.20;62.50;;;;;;5004050;28;20393;-63
2021/07/17 02:47:25;;;;;;;0.95;0.57;;;23.20;62.50;;;;;;5003645;28;20447;-67
2021/07/17 02:49:51;;;;;;;1.30;0.70;;;23.20;62.50;;;;;;5003803;28;20409;-65
2021/07/17 02:52:17;;;;;;;0.70;0.52;;;23.10;62.40;;;;;;5004204;28;20397;-68
2021/07/17 02:54:42;;;;;;;0.80;0.53;;;23.10;62.30;;;;;;5003318;28;20407;-63
2021/07/17 02:57:08;;;;;;;1.00;0.50;;;23.10;62.40;;;;;;5004470;28;20527;-68
2021/07/17 02:59:34;;;;;;;0.87;0.50;;;23.10;62.40;;;;;;5003189;28;20393;-66
2021/07/17 03:01:59;;;;;;;1.20;0.50;;;23.10;62.30;;;;;;5003846;28;20488;-66
2021/07/17 03:04:25;;;;;;;0.83;0.60;;;23.10;62.30;;;;;;5003605;28;20381;-67
2021/07/17 03:06:51;;;;;;;0.90;0.60;;;23.10;62.40;;;;;;5003966;28;20543;-67
2021/07/17 03:09:16;;;;;;;0.80;0.50;;;23.10;62.30;;;;;;5003686;28;20392;-66
2021/07/17 03:11:42;;;;;;;0.90;0.60;;;23.10;62.40;;;;;;5003190;28;20777;-66
2021/07/17 03:14:07;;;;;;;1.00;0.50;;;23.10;62.30;;;;;;5003845;28;21033;-65
2021/07/17 03:16:33;;;;;;;1.10;0.60;;;23.10;62.40;;;;;;5003494;28;20432;-65
2021/07/17 03:18:59;;;;;;;1.80;0.63;;;23.10;62.30;;;;;;5003609;28;20389;-66
2021/07/17 03:21:26;;;;;;;1.40;0.63;;;23.10;62.30;;;;;;5003504;28;20504;-65
2021/07/17 03:23:52;;;;;;;0.82;0.50;;;23.10;62.30;;;;;;5003368;28;20907;-63
2021/07/17 03:26:18;;;;;;;1.10;0.50;;;23.10;62.30;;;;;;5003230;28;20388;-67
2021/07/17 03:28:43;;;;;;;0.82;0.50;;;23.10;62.30;;;;;;5003835;28;20872;-66
2021/07/17 03:31:09;;;;;;;1.30;0.50;;;23.10;62.30;;;;;;5003070;28;20748;-66
2021/07/17 03:33:35;;;;;;;0.82;0.57;;;23.10;62.40;;;;;;5003051;28;20714;-62
2021/07/17 03:36:01;;;;;;;0.98;0.60;;;23.10;62.30;;;;;;5003105;28;21671;-67
2021/07/17 03:38:27;;;;;;;1.20;0.50;;;23.10;62.30;;;;;;5003352;28;20396;-62
2021/07/17 03:40:53;;;;;;;0.80;0.50;;;23.10;62.20;;;;;;5002982;28;20443;-68
2021/07/17 03:43:19;;;;;;;1.00;0.60;;;23.10;62.20;;;;;;5001627;28;20401;-67
2021/07/17 03:45:46;;;;;;;0.95;0.60;;;23.00;62.20;;;;;;5001442;28;20389;-66
2021/07/17 03:48:12;;;;;;;1.27;0.50;;;23.10;62.20;;;;;;5003085;28;20396;-66
2021/07/17 03:50:37;;;;;;;1.10;0.60;;;23.10;62.20;;;;;;5002578;28;20393;-63
2021/07/17 03:53:03;;;;;;;0.93;0.60;;;23.00;62.30;;;;;;5003067;28;20403;-67
2021/07/17 03:55:30;;;;;;;0.70;0.50;;;23.00;62.20;;;;;;5002147;28;20769;-61
2021/07/17 03:57:55;;;;;;;0.82;0.60;;;23.00;62.30;;;;;;5003354;28;20432;-68
2021/07/17 04:00:21;;;;;;;1.00;0.50;;;23.10;62.30;;;;;;5002907;28;20479;-67
2021/07/17 04:02:47;;;;;;;0.90;0.52;;;23.00;62.20;;;;;;5003245;28;20397;-67
2021/07/17 04:05:15;;;;;;;0.90;0.60;;;23.00;62.20;;;;;;5002954;28;20436;-65
2021/07/17 04:07:41;;;;;;;0.80;0.50;;;23.00;62.20;;;;;;5002914;28;20400;-67
2021/07/17 04:10:09;;;;;;;1.00;0.60;;;23.00;62.20;;;;;;5002834;28;20889;-64
2021/07/17 04:12:35;;;;;;;0.80;0.50;;;23.00;62.20;;;;;;5003165;28;20403;-66
2021/07/17 04:15:01;;;;;;;1.03;0.60;;;23.00;62.20;;;;;;5002837;28;20840;-66
2021/07/17 04:17:28;;;;;;;1.00;0.50;;;23.00;62.20;;;;;;5002470;28;20466;-67
2021/07/17 04:19:54;;;;;;;0.80;0.50;;;23.00;62.30;;;;;;5006059;28;20472;-66
2021/07/17 04:22:20;;;;;;;1.35;0.52;;;23.00;62.30;;;;;;5006913;28;20397;-67
2021/07/17 04:24:45;;;;;;;0.70;0.50;;;23.00;62.20;;;;;;5006660;28;20388;-65
2021/07/17 04:27:11;;;;;;;0.70;0.50;;;23.00;62.20;;;;;;5006914;28;20415;-63
2021/07/17 04:29:37;;;;;;;0.80;0.50;;;23.00;62.30;;;;;;5006008;28;20480;-66
2021/07/17 04:32:03;;;;;;;0.87;0.50;;;23.00;62.30;;;;;;5006504;28;20491;-64
2021/07/17 04:34:29;;;;;;;0.85;0.50;;;23.00;62.30;;;;;;5007023;28;20392;-61
2021/07/17 04:36:55;;;;;;;1.10;0.50;;;23.00;62.30;;;;;;5006274;28;20424;-67
2021/07/17 04:39:21;;;;;;;0.50;0.40;;;23.00;62.30;;;;;;5006358;28;20388;-66
2021/07/17 04:41:47;;;;;;;1.10;0.50;;;23.00;62.30;;;;;;5005696;28;20407;-67
2021/07/17 04:44:12;;;;;;;0.90;0.60;;;23.00;62.30;;;;;;5021750;28;20397;-67
2021/07/17 04:46:38;;;;;;;0.90;0.50;;;23.00;62.30;;;;;;5006375;28;20467;-66
2021/07/17 04:49:04;;;;;;;0.80;0.60;;;23.00;62.50;;;;;;5006042;28;20427;-64
2021/07/17 04:51:29;;;;;;;0.93;0.57;;;23.00;62.30;;;;;;5004815;28;20440;-66
2021/07/17 04:53:55;;;;;;;0.75;0.50;;;23.00;62.30;;;;;;5004110;28;20393;-67
2021/07/17 04:56:21;;;;;;;0.90;0.60;;;23.00;62.30;;;;;;5005983;28;20421;-67
2021/07/17 04:58:46;;;;;;;0.63;0.53;;;23.00;62.30;;;;;;5005825;28;20396;-65
2021/07/17 05:01:12;;;;;;;1.20;0.60;;;22.90;62.30;;;;;;5006108;28;20400;-67
2021/07/17 05:03:38;;;;;;;1.07;0.60;;;23.00;62.40;;;;;;5005306;28;20640;-67
2021/07/17 05:06:04;;;;;;;1.00;0.50;;;23.00;62.30;;;;;;5005980;28;20474;-67
2021/07/17 05:08:30;;;;;;;1.05;0.50;;;23.00;62.40;;;;;;5005878;28;20392;-62
2021/07/17 05:10:56;;;;;;;0.75;0.52;;;22.90;62.30;;;;;;5005742;28;20396;-62
2021/07/17 05:13:22;;;;;;;0.90;0.50;;;22.90;62.30;;;;;;5005723;28;20482;-67
2021/07/17 05:15:48;;;;;;;1.17;0.55;;;22.90;62.30;;;;;;5005330;28;20415;-62
2021/07/17 05:18:13;;;;;;;1.40;0.52;;;23.00;62.50;;;;;;5005576;28;20409;-67
2021/07/17 05:20:40;;;;;;;0.73;0.40;;;22.90;62.30;;;;;;5005389;28;20389;-66
2021/07/17 05:23:06;;;;;;;0.70;0.45;;;22.90;62.40;;;;;;5005623;28;20753;-67
2021/07/17 05:25:32;;;;;;;0.85;0.50;;;22.90;62.40;;;;;;5005516;28;20392;-64
2021/07/17 05:27:57;;;;;;;0.80;0.60;;;22.90;62.40;;;;;;5005416;28;20400;-63
2021/07/17 05:30:23;;;;;;;0.65;0.50;;;22.90;62.50;;;;;;5003986;28;20389;-67
2021/07/17 05:32:49;;;;;;;1.08;0.70;;;22.90;62.40;;;;;;5005331;28;20400;-64
2021/07/17 05:35:16;;;;;;;0.95;0.60;;;22.90;62.40;;;;;;5005313;28;20388;-66
2021/07/17 05:37:41;;;;;;;0.97;0.70;;;22.90;62.60;;;;;;5004867;28;20492;-66
2021/07/17 05:40:08;;;;;;;0.85;0.50;;;22.90;62.40;;;;;;5004993;28;20405;-65
2021/07/17 05:42:33;;;;;;;1.20;0.75;;;22.90;62.40;;;;;;5005230;28;20396;-67
2021/07/17 05:44:59;;;;;;;1.60;0.70;;;22.90;62.50;;;;;;5004976;28;20385;-67
2021/07/17 05:47:26;;;;;;;1.10;0.50;;;22.90;62.60;;;;;;5004797;28;20393;-65
2021/07/17 05:49:51;;;;;;;0.95;0.60;;;22.90;62.50;;;;;;5004597;28;20396;-62
2021/07/17 05:52:17;;;;;;;0.87;0.60;;;22.90;62.50;;;;;;5005056;28;20719;-66
2021/07/17 05:54:43;;;;;;;0.75;0.55;;;22.90;62.50;;;;;;5004333;28;20734;-65
2021/07/17 05:57:08;;;;;;;0.67;0.50;;;22.90;62.50;;;;;;5003745;28;20425;-62
2021/07/17 05:59:36;;;;;;;0.70;0.50;;;22.90;62.50;;;;;;5004045;28;20396;-65
2021/07/17 06:02:05;;;;;;;0.90;0.50;;;22.90;62.50;;;;;;5004322;28;20439;-63
2021/07/17 06:04:31;;;;;;;0.70;0.55;;;22.90;62.50;;;;;;5004490;28;20401;-61
2021/07/17 06:06:57;;;;;;;1.20;0.63;;;22.90;62.50;;;;;;5003930;28;20543;-63
2021/07/17 06:09:23;;;;;;;2.00;0.90;;;22.90;62.60;;;;;;5003836;28;21272;-64
2021/07/17 06:11:49;;;;;;;1.20;0.80;;;22.90;62.70;;;;;;5003714;28;20393;-66
2021/07/17 06:14:15;;;;;;;2.50;0.83;;;22.90;63.20;;;;;;5004129;28;21023;-64
2021/07/17 06:16:41;;;;;;;3.60;1.00;;;22.90;62.60;;;;;;5003932;28;20444;-66
2021/07/17 06:19:06;;;;;;;2.70;0.97;;;22.90;62.60;;;;;;5003952;28;20488;-63
2021/07/17 06:21:32;;;;;;;3.00;1.48;;;22.90;62.80;;;;;;5004040;28;20415;-62
2021/07/17 06:23:58;;;;;;;2.00;1.20;;;22.90;62.70;;;;;;5003373;28;20447;-62
2021/07/17 06:26:24;;;;;;;3.97;1.40;;;23.00;63.20;;;;;;5003888;28;20447;-64
2021/07/17 06:28:50;;;;;;;4.75;1.92;;;23.00;63.30;;;;;;5002520;28;20404;-67
2021/07/17 06:31:17;;;;;;;3.42;1.33;;;23.00;63.40;;;;;;5003705;28;20393;-63
2021/07/17 06:33:43;;;;;;;3.45;1.50;;;23.00;63.70;;;;;;5003528;28;20470;-62
2021/07/17 06:36:09;;;;;;;2.60;1.70;;;23.10;64.00;;;;;;5018528;28;20409;-61
2021/07/17 06:38:35;;;;;;;4.72;1.65;;;23.10;64.30;;;;;;5003450;28;20435;-62
2021/07/17 06:41:01;;;;;;;4.10;1.93;;;23.10;64.40;;;;;;5018191;28;20943;-65
2021/07/17 06:43:28;;;;;;;5.35;2.30;;;23.10;64.70;;;;;;5003057;28;20396;-63
2021/07/17 06:45:54;;;;;;;5.43;2.30;;;23.10;65.20;;;;;;5002481;28;20393;-62
2021/07/17 06:48:19;;;;;;;5.73;2.33;;;23.20;65.30;;;;;;5003212;28;20400;-62
2021/07/17 06:50:47;;;;;;;4.33;2.30;;;23.20;65.20;;;;;;5003277;28;20388;-62
2021/07/17 06:53:13;;;;;;;4.90;2.50;;;23.20;65.50;;;;;;5003516;28;20451;-63
2021/07/17 06:55:39;;;;;;;6.03;2.70;;;23.20;65.20;;;;;;5002456;28;20392;-66
2021/07/17 06:58:05;;;;;;;4.80;2.95;;;23.20;65.30;;;;;;5002944;28;20501;-61
2021/07/17 07:00:33;;;;;;;8.00;3.07;;;23.20;65.00;;;;;;5002711;28;20794;-61
2021/07/17 07:03:00;;;;;;;6.78;3.03;;;23.20;65.00;;;;;;5002023;28;20416;-62
2021/07/17 07:05:25;;;;;;;5.13;3.00;;;23.20;65.50;;;;;;5003222;28;20503;-61
2021/07/17 07:07:51;;;;;;;6.72;3.20;;;23.20;65.20;;;;;;5002615;28;20451;-61
2021/07/17 07:10:17;;;;;;;6.82;3.20;;;23.30;65.20;;;;;;5003034;28;20960;-61
2021/07/17 07:12:43;;;;;;;6.83;3.50;;;23.30;65.50;;;;;;5002540;28;20421;-61
2021/07/17 07:15:10;;;;;;;8.52;3.55;;;23.30;65.40;;;;;;5002608;28;20389;-62
2021/07/17 07:17:36;;;;;;;5.85;3.38;;;23.30;65.30;;;;;;4984992;28;20935;-61
2021/07/17 07:20:10;;;;;;;6.32;3.83;;;23.30;65.40;;;;;;5002418;28;20431;-61
2021/07/17 07:22:37;;;;;;;7.97;3.55;;;23.30;65.40;;;;;;5003029;28;20902;-61
2021/07/17 07:25:07;;;;;;;7.55;3.92;;;23.40;65.40;;;;;;5002681;28;20381;-63
2021/07/17 07:27:34;;;;;;;7.55;4.03;;;23.30;65.40;;;;;;5002383;28;20393;-62
2021/07/17 07:30:00;;;;;;;7.93;4.03;;;23.30;65.00;;;;;;5002462;28;20407;-64
2021/07/17 07:32:25;;;;;;;8.55;4.32;;;23.30;64.90;;;;;;5002633;28;20397;-61
2021/07/17 07:34:51;;;;;;;10.05;4.43;;;23.30;64.70;;;;;;5002480;28;20404;-62
2021/07/17 07:37:17;;;;;;;7.93;4.70;;;23.30;64.90;;;;;;5002361;28;21003;-62
2021/07/17 07:39:42;;;;;;;7.28;4.68;;;23.20;64.60;;;;;;5001777;28;20419;-61
2021/07/17 07:42:08;;;;;;;6.82;4.57;;;23.20;64.50;;;;;;5002616;28;20397;-63
2021/07/17 07:44:34;;;;;;;7.82;5.22;;;23.20;65.00;;;;;;5017509;28;20819;-61
2021/07/17 07:47:00;;;;;;;7.77;5.43;;;23.20;65.20;;;;;;5002331;28;20488;-62
2021/07/17 07:49:25;;;;;;;8.48;5.03;;;23.20;64.30;;;;;;5002428;28;20475;-61
2021/07/17 07:51:51;;;;;;;8.97;4.73;;;23.20;64.30;;;;;;5001882;28;20487;-62
2021/07/17 07:54:17;;;;;;;6.30;4.22;;;23.20;64.20;;;;;;5001721;28;20423;-66
2021/07/17 07:56:42;;;;;;;6.40;3.97;;;23.20;64.40;;;;;;5002327;28;20425;-62
2021/07/17 07:59:08;;;;;;;6.70;3.90;;;23.20;64.10;;;;;;5002316;28;20393;-62
2021/07/17 08:01:34;;;;;;;4.55;4.05;;;23.20;64.10;;;;;;5002129;28;20396;-68
2021/07/17 08:04:00;;;;;;;5.80;4.10;;;23.10;63.90;;;;;;5002054;28;20436;-62
2021/07/17 08:06:26;;;;;;;4.82;3.90;;;23.20;64.00;;;;;;5001951;28;20397;-61
2021/07/17 08:08:51;;;;;;;6.90;4.23;;;23.10;63.90;;;;;;5002438;28;20400;-63
2021/07/17 08:11:17;;;;;;;5.70;4.20;;;23.10;64.00;;;;;;5002237;28;20432;-62
2021/07/17 08:13:42;;;;;;;5.10;4.03;;;23.10;63.80;;;;;;5001732;28;20389;-61
2021/07/17 08:16:10;;;;;;;5.18;3.70;;;23.10;63.80;;;;;;5002026;28;20428;-61
2021/07/17 08:18:36;;;;;;;4.88;3.60;;;23.10;63.70;;;;;;5002132;28;20389;-61
2021/07/17 08:21:02;;;;;;;5.07;3.88;;;23.10;63.70;;;;;;5002165;28;20423;-61
2021/07/17 08:23:27;;;;;;;4.32;3.67;;;23.10;63.70;;;;;;5002280;28;20392;-61
2021/07/17 08:25:53;;;;;;;4.32;3.50;;;23.10;63.70;;;;;;5001809;28;20757;-63
2021/07/17 08:28:19;;;;;;;4.00;3.60;;;23.10;63.60;;;;;;5001921;28;20385;-62
2021/07/17 08:30:45;;;;;;;4.10;3.67;;;23.10;63.60;;;;;;5002027;28;20845;-61
2021/07/17 08:33:11;;;;;;;4.20;3.80;;;23.10;63.70;;;;;;5002211;28;20392;-62
2021/07/17 08:35:36;;;;;;;4.23;3.80;;;23.10;63.60;;;;;;5001807;28;20860;-61
2021/07/17 08:38:03;;;;;;;4.70;4.03;;;23.10;63.60;;;;;;5000304;28;20794;-62
2021/07/17 08:40:29;;;;;;;5.68;4.40;;;23.10;63.60;;;;;;5001880;28;20488;-61
2021/07/17 08:42:55;;;;;;;5.18;4.50;;;23.10;63.70;;;;;;5002134;28;20915;-62
2021/07/17 08:45:23;;;;;;;4.78;4.07;;;23.10;63.70;;;;;;5001885;28;20585;-61
2021/07/17 08:47:52;;;;;;;5.53;4.65;;;23.10;63.60;;;;;;5001641;28;20385;-61
2021/07/17 08:50:22;;;;;;;5.30;4.57;;;23.20;63.60;;;;;;5000665;28;20385;-61
2021/07/17 08:52:51;;;;;;;4.80;4.30;;;23.20;63.50;;;;;;5000623;28;20396;-62
2021/07/17 08:55:17;;;;;;;5.43;4.50;;;23.20;63.50;;;;;;5001869;28;20404;-65
2021/07/17 08:57:43;;;;;;;4.80;4.30;;;23.20;63.40;;;;;;5001063;28;20417;-62
2021/07/17 09:00:18;;;;;;;5.25;4.40;;;23.20;63.30;;;;;;5001976;28;20389;-64
2021/07/17 09:02:48;;;;;;;5.05;4.55;;;23.20;63.30;;;;;;5001706;28;20897;-62
2021/07/17 09:05:19;;;;;;;5.68;5.07;;;23.20;63.20;;;;;;5004006;28;20722;-64
2021/07/17 09:07:45;;;;;;;5.55;4.75;;;23.20;63.30;;;;;;5004806;28;20401;-62
2021/07/17 09:10:30;;;;;;;5.90;5.30;;;23.20;63.10;;;;;;5005257;28;20459;-61
2021/07/17 09:13:19;;;;;;;6.03;5.40;;;23.30;63.40;;;;;;5005208;28;20400;-61
2021/07/17 09:15:48;;;;;;;6.47;5.18;;;23.30;63.30;;;;;;5004628;28;20421;-62
2021/07/17 09:18:34;;;;;;;6.20;5.40;;;23.30;63.20;;;;;;5005174;28;20460;-61
2021/07/17 09:21:05;;;;;;;6.13;5.35;;;23.30;63.10;;;;;;5004792;28;20853;-62
2021/07/17 09:23:45;;;;;;;6.67;5.97;;;23.30;63.00;;;;;;5005319;28;20389;-62
2021/07/17 09:26:49;;;;;;;6.32;5.38;;;23.40;63.10;;;;;;5005142;28;20396;-61
2021/07/17 09:29:15;;;;;;;6.10;5.50;;;23.40;62.80;;;;;;5004815;28;20397;-62
2021/07/17 09:31:50;;;;;;;5.85;5.28;;;23.50;62.90;;;;;;5004537;28;20396;-62
2021/07/17 09:34:18;;;;;;;6.53;5.38;;;23.50;62.80;;;;;;5004713;28;20470;-61
2021/07/17 09:36:54;;;;;;;9.18;6.72;;;23.50;62.60;;;;;;5004426;28;20818;-62
2021/07/17 09:39:26;;;;;;;9.25;6.10;;;23.60;64.10;;;;;;5004578;28;20405;-62
2021/07/17 09:41:54;;;;;;;7.55;6.32;;;23.70;63.50;;;;;;5003447;28;20408;-63
2021/07/17 09:44:24;;;;;;;9.38;6.55;;;23.80;63.00;;;;;;5004372;28;20381;-66
2021/07/17 09:46:51;;;;;;;6.35;5.50;;;23.80;63.50;;;;;;5004645;28;20451;-62
2021/07/17 09:49:20;;;;;;;9.38;7.07;;;23.70;62.70;;;;;;5004300;28;20393;-62
2021/07/17 09:51:47;;;;;;;8.65;6.50;;;23.80;63.90;;;;;;5002453;28;20389;-62
2021/07/17 09:54:13;;;;;;;7.85;6.95;;;23.80;63.60;;;;;;5004381;28;20466;-62
2021/07/17 09:56:41;;;;;;;7.97;7.18;;;23.80;63.40;;;;;;5004174;28;20897;-61
2021/07/17 09:59:09;;;;;;;8.20;7.40;;;23.80;63.10;;;;;;5003675;28;20723;-62
2021/07/17 10:01:40;;;;;;;8.15;6.90;;;23.80;62.90;;;;;;5003611;28;20381;-62
2021/07/17 10:04:13;;;;;;;8.77;7.18;;;23.80;62.70;;;;;;5003553;28;20578;-62
2021/07/17 10:06:47;;;;;;;10.52;7.00;;;23.80;62.60;;;;;;5003931;28;20381;-62
2021/07/17 10:09:14;;;;;;;8.50;7.13;;;23.90;62.80;;;;;;5004110;28;20499;-62
2021/07/17 10:11:44;;;;;;;8.63;7.22;;;23.90;62.60;;;;;;5003407;28;20446;-62
2021/07/17 10:14:25;;;;;;;8.25;6.95;;;23.90;62.70;;;;;;5004045;28;20393;-63
2021/07/17 10:16:54;;;;;;;9.20;7.10;;;24.00;62.70;;;;;;5000434;28;20496;-64
2021/07/17 10:19:22;;;;;;;9.32;7.38;;;24.00;62.60;;;;;;5002113;28;20966;-66
2021/07/17 10:21:48;;;;;;;8.65;6.90;;;24.00;62.60;;;;;;5001801;28;20447;-62
2021/07/17 10:24:15;;;;;;;10.35;6.93;;;24.10;62.80;;;;;;5002386;28;20729;-65
2021/07/17 10:26:42;;;;;;;10.05;7.10;;;24.10;62.60;;;;;;5002077;28;20435;-62
2021/07/17 10:29:10;;;;;;;7.70;6.90;;;24.10;62.60;;;;;;5001304;28;20400;-64
2021/07/17 10:31:37;;;;;;;8.63;7.30;;;24.10;62.60;;;;;;5002760;28;20400;-62
2021/07/17 10:34:04;;;;;;;9.25;7.10;;;24.00;62.70;;;;;;5002459;28;20381;-63
2021/07/17 10:36:30;;;;;;;10.20;7.72;;;24.10;62.90;;;;;;5002528;28;20433;-62
2021/07/17 10:39:02;;;;;;;10.10;7.82;;;24.10;63.00;;;;;;5001923;28;20427;-62
2021/07/17 10:41:32;;;;;;;9.52;8.00;;;24.10;63.70;;;;;;5001925;28;20849;-62
2021/07/17 10:43:58;;;;;;;11.05;8.45;;;24.00;63.70;;;;;;5001473;28;20392;-62
2021/07/17 10:46:27;;;;;;;12.23;8.50;;;24.00;64.00;;;;;;5002087;28;20468;-62
2021/07/17 10:48:54;;;;;;;10.70;8.60;;;24.00;64.20;;;;;;5002020;28;20397;-66
2021/07/17 10:51:23;;;;;;;13.38;9.25;;;24.00;64.50;;;;;;5002116;28;20424;-63
2021/07/17 10:53:52;;;;;;;10.98;8.75;;;24.00;65.20;;;;;;5001900;28;20411;-63
2021/07/17 10:56:27;;;;;;;12.60;9.00;;;24.00;64.90;;;;;;5001673;28;20405;-62
2021/07/17 10:58:58;;;;;;;10.35;8.38;;;23.90;64.70;;;;;;5000907;28;21071;-62
2021/07/17 11:01:24;;;;;;;12.80;8.40;;;23.90;64.80;;;;;;5003221;28;20393;-62
2021/07/17 11:03:50;;;;;;;10.02;8.25;;;23.90;64.70;;;;;;5001577;28;20392;-62
2021/07/17 11:06:35;;;;;;;10.23;8.57;;;23.90;64.60;;;;;;5004341;28;20392;-62
2021/07/17 11:09:24;;;;;;;9.70;7.57;;;23.90;64.30;;;;;;5001968;28;20416;-61
2021/07/17 11:11:50;;;;;;;9.95;7.90;;;23.90;64.10;;;;;;5000704;28;20451;-63
2021/07/17 11:14:16;;;;;;;10.20;7.30;;;23.90;64.00;;;;;;5002029;28;20392;-62
2021/07/17 11:16:48;;;;;;;8.82;7.38;;;23.90;63.90;;;;;;5001992;28;20507;-62
2021/07/17 11:19:25;;;;;;;8.05;7.03;;;23.90;63.80;;;;;;5001907;28;20492;-62
2021/07/17 11:21:53;;;;;;;8.30;7.22;;;23.90;63.80;;;;;;5001700;28;20415;-63
2021/07/17 11:24:22;;;;;;;8.63;6.90;;;23.90;63.70;;;;;;5001538;28;20463;-61
2021/07/17 11:27:08;;;;;;;7.75;7.03;;;23.90;63.60;;;;;;5001366;28;20901;-63
2021/07/17 11:29:41;;;;;;;8.27;7.07;;;23.90;63.60;;;;;;5001383;28;20503;-61
2021/07/17 11:32:09;;;;;;;8.80;7.10;;;23.90;63.60;;;;;;5001405;28;20873;-62
2021/07/17 11:34:49;;;;;;;7.80;6.97;;;23.90;63.30;;;;;;5001683;28;21462;-62
2021/07/17 11:37:17;;;;;;;10.30;6.93;;;24.00;63.20;;;;;;5001582;28;20421;-62
2021/07/17 11:39:45;;;;;;;10.77;6.78;;;24.00;63.20;;;;;;4999816;28;21127;-62
2021/07/17 11:42:14;;;;;;;10.50;6.70;;;24.00;63.20;;;;;;5001235;28;20392;-62
2021/07/17 11:44:48;;;;;;;12.15;6.80;;;24.00;63.10;;;;;;5001716;28;20389;-62
2021/07/17 11:47:17;;;;;;;11.55;6.82;;;24.00;63.20;;;;;;5001615;28;20479;-62
2021/07/17 11:49:54;;;;;;;10.50;6.68;;;24.10;63.10;;;;;;5001089;28;20451;-62
2021/07/17 11:52:24;;;;;;;11.93;6.72;;;24.00;63.20;;;;;;5001599;28;20407;-62
2021/07/17 11:54:51;;;;;;;13.57;6.43;;;24.00;63.20;;;;;;5001361;28;20918;-62
2021/07/17 11:57:21;;;;;;;11.70;6.87;;;24.10;63.10;;;;;;5001005;28;20599;-64
2021/07/17 11:59:57;;;;;;;9.80;6.10;;;24.10;63.20;;;;;;5001066;28;20409;-63
2021/07/17 12:02:24;;;;;;;9.82;6.30;;;24.10;63.10;;;;;;5001464;28;20482;-62
2021/07/17 12:05:14;;;;;;;7.43;6.32;;;24.10;63.10;;;;;;5000900;28;20400;-61
2021/07/17 12:07:42;;;;;;;8.93;6.63;;;24.10;63.60;;;;;;5001131;28;20409;-63
2021/07/17 12:10:10;;;;;;;9.75;6.50;;;24.10;64.10;;;;;;5000869;28;20389;-61
2021/07/17 12:12:41;;;;;;;9.10;6.70;;;24.20;64.40;;;;;;5001289;28;20385;-62
2021/07/17 12:15:10;;;;;;;9.63;6.88;;;24.20;63.70;;;;;;5001472;28;20393;-63
2021/07/17 12:17:38;;;;;;;11.40;6.90;;;24.20;63.50;;;;;;5016318;28;20462;-62
2021/07/17 12:20:07;;;;;;;13.55;6.32;;;24.20;63.30;;;;;;4999480;28;20407;-62
2021/07/17 12:22:34;;;;;;;11.43;6.60;;;24.20;63.60;;;;;;5001218;28;20409;-62
2021/07/17 12:25:11;;;;;;;12.75;6.80;;;24.30;63.60;;;;;;5000904;28;20935;-64
2021/07/17 12:27:57;;;;;;;11.65;6.93;;;24.40;64.20;;;;;;5002295;28;20407;-63
2021/07/17 12:30:25;;;;;;;12.75;6.90;;;24.40;64.10;;;;;;5002306;28;21760;-63
2021/07/17 12:32:51;;;;;;;12.52;7.07;;;24.40;63.90;;;;;;5002594;28;20414;-62
2021/07/17 12:35:24;;;;;;;13.90;7.65;;;24.40;64.10;;;;;;5002257;28;20459;-67
2021/07/17 12:37:51;;;;;;;10.45;7.75;;;24.50;64.40;;;;;;5002443;28;20765;-63
2021/07/17 12:40:17;;;;;;;11.40;7.43;;;24.60;64.90;;;;;;5004622;28;20837;-68
2021/07/17 12:42:49;;;;;;;11.98;6.75;;;24.70;64.50;;;;;;5005676;28;20955;-63
2021/07/17 12:45:17;;;;;;;9.63;6.70;;;24.60;64.00;;;;;;5005686;28;20895;-67
2021/07/17 12:47:52;;;;;;;11.23;6.57;;;24.50;63.90;;;;;;5005793;28;20450;-67